Time;durP1;ratioP1;P1;durP2;ratioP2;P2;SDS_P1;SDS_P2;PMS_P1;PMS_P2;Temp;Humidity;BMP_temperature;BMP_pressure;BME280_temperature;BME280_humidity;BME280_pressure;Samples;Min_cycle;Max_cycle;Signal;HPM_P1;HPM_P2
2022/03/27 00:00:28;;;;;;;16.10;12.05;;;7.50;99.90;;;;;;5039967;28;20026;-75
2022/03/27 00:02:53;;;;;;;14.98;11.90;;;7.40;99.90;;;;;;5037091;28;20032;-75
2022/03/27 00:05:19;;;;;;;13.80;12.23;;;7.30;99.90;;;;;;5042669;28;20470;-76
2022/03/27 00:07:44;;;;;;;13.75;11.95;;;7.30;99.90;;;;;;5030697;28;20108;-74
2022/03/27 00:10:10;;;;;;;16.00;12.80;;;7.20;99.90;;;;;;5044962;28;20092;-74
2022/03/27 00:12:36;;;;;;;14.32;12.48;;;7.20;99.90;;;;;;5045278;28;20060;-73
2022/03/27 00:15:03;;;;;;;17.50;12.40;;;7.30;99.90;;;;;;5038460;28;20387;-75
2022/03/27 00:17:33;;;;;;;15.35;12.02;;;7.20;99.90;;;;;;5048234;28;20459;-75
2022/03/27 00:20:08;;;;;;;14.02;12.02;;;7.00;99.90;;;;;;5036509;28;20373;-75
2022/03/27 00:22:34;;;;;;;15.10;12.77;;;7.00;99.90;;;;;;5044539;28;20017;-75
2022/03/27 00:25:00;;;;;;;15.18;12.93;;;7.00;99.90;;;;;;5033423;28;20158;-75
2022/03/27 00:27:26;;;;;;;16.30;12.93;;;6.90;99.90;;;;;;5046539;28;20024;-74
2022/03/27 00:29:52;;;;;;;15.77;13.98;;;6.80;99.90;;;;;;5041582;28;20024;-73
2022/03/27 00:32:17;;;;;;;16.45;12.35;;;6.70;99.90;;;;;;5036421;28;20025;-76
2022/03/27 00:34:43;;;;;;;15.20;12.65;;;6.70;99.90;;;;;;5042844;28;20127;-75
2022/03/27 00:37:08;;;;;;;16.13;13.73;;;6.70;99.90;;;;;;5039671;28;20033;-75
2022/03/27 00:39:34;;;;;;;15.30;13.00;;;6.70;99.90;;;;;;5039447;28;20021;-74
2022/03/27 00:41:59;;;;;;;17.67;13.65;;;6.70;99.90;;;;;;5038559;28;20434;-76
2022/03/27 00:44:25;;;;;;;15.48;13.00;;;6.60;99.90;;;;;;5043764;28;20021;-75
2022/03/27 00:46:50;;;;;;;18.08;14.07;;;6.60;99.90;;;;;;5044438;28;20051;-74
2022/03/27 00:49:16;;;;;;;16.38;13.32;;;6.70;99.90;;;;;;5041620;28;20036;-75
2022/03/27 00:51:42;;;;;;;18.52;13.85;;;6.70;99.90;;;;;;5035241;28;20029;-76
2022/03/27 00:54:07;;;;;;;16.15;14.00;;;6.70;99.90;;;;;;5037804;28;20570;-76
2022/03/27 00:56:33;;;;;;;17.90;14.35;;;6.70;99.90;;;;;;5044616;28;20034;-75
2022/03/27 00:58:59;;;;;;;17.88;14.57;;;6.80;99.90;;;;;;5032437;28;20041;-74
2022/03/27 01:01:36;;;;;;;19.83;14.77;;;6.80;99.90;;;;;;5043893;28;20043;-75
2022/03/27 01:04:03;;;;;;;17.90;13.93;;;6.90;99.90;;;;;;5047102;28;20075;-75
2022/03/27 01:06:43;;;;;;;16.10;13.93;;;6.80;99.90;;;;;;5043069;28;20025;-74
2022/03/27 01:11:55;;;;;;;22.45;14.90;;;6.80;99.90;;;;;;5031148;28;20032;-75
2022/03/27 01:14:32;;;;;;;17.70;14.48;;;7.10;99.90;;;;;;5042616;28;20096;-75
2022/03/27 01:17:01;;;;;;;18.55;14.68;;;7.20;99.90;;;;;;5046307;28;20025;-75
2022/03/27 01:19:27;;;;;;;21.50;15.35;;;7.30;99.90;;;;;;5037680;28;20097;-75
2022/03/27 01:21:52;;;;;;;19.65;15.23;;;7.40;99.90;;;;;;5041294;28;20029;-75
2022/03/27 01:24:18;;;;;;;16.23;13.88;;;7.40;99.90;;;;;;5036247;28;20067;-75
2022/03/27 01:26:45;;;;;;;19.83;14.77;;;7.20;99.90;;;;;;5045130;28;20090;-75
2022/03/27 01:29:11;;;;;;;20.33;14.43;;;7.10;99.90;;;;;;5041671;28;20116;-75
2022/03/27 01:31:37;;;;;;;19.50;14.75;;;7.20;99.90;;;;;;5039911;28;20104;-75
2022/03/27 01:34:04;;;;;;;21.85;16.20;;;7.20;99.90;;;;;;5042132;28;20435;-75
2022/03/27 01:36:34;;;;;;;21.83;15.95;;;7.30;99.90;;;;;;5034286;28;20018;-74
2022/03/27 01:39:02;;;;;;;22.10;17.13;;;7.30;99.90;;;;;;5017569;28;20096;-74
2022/03/27 01:41:28;;;;;;;22.48;17.13;;;7.40;99.90;;;;;;5031541;28;20022;-74
2022/03/27 01:43:53;;;;;;;19.77;15.57;;;7.40;99.90;;;;;;5019355;28;20021;-74
2022/03/27 01:46:19;;;;;;;20.83;15.70;;;7.40;99.90;;;;;;5025254;28;20021;-74
2022/03/27 01:48:46;;;;;;;22.48;16.67;;;7.40;99.90;;;;;;5028385;28;20034;-74
2022/03/27 01:51:11;;;;;;;20.67;16.23;;;7.50;99.90;;;;;;5030066;28;20514;-74
2022/03/27 01:53:38;;;;;;;20.83;16.15;;;7.30;99.90;;;;;;5028210;28;20038;-74
2022/03/27 01:56:06;;;;;;;20.92;16.95;;;7.30;99.90;;;;;;5023138;28;20022;-74
2022/03/27 01:58:31;;;;;;;23.38;16.55;;;7.40;99.90;;;;;;5031664;28;20014;-74
2022/03/27 02:00:57;;;;;;;21.05;16.65;;;7.50;99.90;;;;;;5031998;28;20022;-74
2022/03/27 02:03:27;;;;;;;22.38;17.45;;;7.40;99.90;;;;;;5032254;28;20027;-74
2022/03/27 02:05:54;;;;;;;21.60;17.67;;;7.40;99.90;;;;;;5032250;28;20041;-74
2022/03/27 02:08:19;;;;;;;21.30;17.75;;;7.40;99.90;;;;;;5025617;28;20479;-75
2022/03/27 02:10:45;;;;;;;19.38;16.40;;;7.30;99.90;;;;;;5020366;28;20018;-75
2022/03/27 02:13:14;;;;;;;19.23;16.55;;;7.20;99.90;;;;;;5025763;28;20519;-75
2022/03/27 02:15:40;;;;;;;19.75;16.17;;;7.30;99.90;;;;;;5023090;28;20022;-75
2022/03/27 02:18:08;;;;;;;27.52;17.55;;;7.30;99.90;;;;;;5018762;28;20064;-73
2022/03/27 02:20:33;;;;;;;21.50;16.95;;;7.20;99.90;;;;;;5018437;28;20041;-74
2022/03/27 02:22:59;;;;;;;22.45;17.17;;;7.20;99.90;;;;;;5024467;28;20022;-74
2022/03/27 02:25:24;;;;;;;19.00;16.70;;;6.80;99.90;;;;;;5030924;28;20361;-73
2022/03/27 02:27:50;;;;;;;22.83;16.98;;;6.60;99.90;;;;;;5026551;28;20025;-74
2022/03/27 02:30:17;;;;;;;22.00;16.45;;;5.80;99.90;;;;;;5023759;28;20041;-74
2022/03/27 02:32:43;;;;;;;19.65;15.90;;;5.40;99.90;;;;;;5018661;28;20025;-74
2022/03/27 02:35:08;;;;;;;23.20;15.63;;;5.60;99.90;;;;;;5019877;28;20707;-74
2022/03/27 02:37:34;;;;;;;18.05;15.07;;;5.50;99.90;;;;;;5025147;28;20101;-75
2022/03/27 02:39:59;;;;;;;17.83;15.93;;;5.70;99.90;;;;;;5024069;28;20026;-76
2022/03/27 02:42:25;;;;;;;18.17;15.43;;;5.70;99.90;;;;;;5018393;28;20364;-76
2022/03/27 02:44:50;;;;;;;20.08;14.52;;;5.70;99.90;;;;;;5019589;28;20045;-76
2022/03/27 02:47:16;;;;;;;21.10;16.67;;;5.70;99.90;;;;;;5025287;28;20026;-74
2022/03/27 02:49:41;;;;;;;20.52;16.45;;;5.70;99.90;;;;;;5024113;28;20104;-74
2022/03/27 02:52:07;;;;;;;19.25;15.60;;;5.60;99.90;;;;;;5017986;28;20480;-74
2022/03/27 02:54:32;;;;;;;19.05;16.30;;;5.60;99.90;;;;;;5019893;28;20030;-74
2022/03/27 02:56:58;;;;;;;18.95;16.95;;;5.50;99.90;;;;;;5025038;28;20057;-74
2022/03/27 02:59:25;;;;;;;20.20;16.42;;;5.50;99.90;;;;;;5022019;28;20460;-74
2022/03/27 03:01:50;;;;;;;22.27;16.15;;;5.50;99.90;;;;;;5044925;28;20021;-74
2022/03/27 03:04:16;;;;;;;23.42;16.77;;;5.50;99.90;;;;;;5019682;28;20385;-74
2022/03/27 03:06:42;;;;;;;22.02;17.58;;;5.70;99.90;;;;;;5031842;28;20451;-74
2022/03/27 03:09:08;;;;;;;20.92;17.75;;;5.60;99.90;;;;;;5019497;28;20022;-75
2022/03/27 03:11:34;;;;;;;20.88;17.80;;;5.40;99.90;;;;;;5028805;28;20033;-74
2022/03/27 03:13:59;;;;;;;19.38;16.50;;;5.40;99.90;;;;;;5015754;28;20041;-74
2022/03/27 03:16:26;;;;;;;20.35;16.80;;;5.40;99.90;;;;;;5028894;28;20110;-74
2022/03/27 03:18:52;;;;;;;22.77;17.45;;;5.40;99.90;;;;;;5025805;28;20124;-75
2022/03/27 03:21:18;;;;;;;22.58;17.27;;;5.40;99.90;;;;;;5020611;28;20104;-75
2022/03/27 03:23:43;;;;;;;23.30;17.60;;;5.20;99.90;;;;;;5023883;28;20105;-76
2022/03/27 03:26:09;;;;;;;24.80;18.20;;;5.20;99.90;;;;;;5019987;28;20036;-75
2022/03/27 03:28:35;;;;;;;21.25;16.90;;;5.30;99.90;;;;;;5023997;28;20091;-75
2022/03/27 03:31:01;;;;;;;18.90;16.88;;;5.50;99.90;;;;;;5028281;28;20022;-75
2022/03/27 03:33:28;;;;;;;20.38;17.02;;;5.50;99.90;;;;;;5026582;28;20037;-75
2022/03/27 03:35:54;;;;;;;21.95;17.17;;;5.50;99.90;;;;;;5029268;28;20069;-75
2022/03/27 03:38:20;;;;;;;22.52;18.25;;;5.50;99.90;;;;;;5026588;28;20471;-74
2022/03/27 03:40:46;;;;;;;24.23;18.90;;;5.70;99.90;;;;;;5019900;28;20053;-75
2022/03/27 03:43:11;;;;;;;22.88;18.15;;;5.80;99.90;;;;;;5024442;28;20020;-76
2022/03/27 03:45:37;;;;;;;30.25;19.80;;;6.00;99.90;;;;;;5026949;28;20022;-76
2022/03/27 03:48:05;;;;;;;25.23;18.80;;;5.90;99.90;;;;;;5026204;28;20041;-76
2022/03/27 03:50:35;;;;;;;23.55;19.92;;;5.90;99.90;;;;;;5022346;28;20467;-77
2022/03/27 03:53:00;;;;;;;23.05;18.83;;;5.20;99.90;;;;;;5021511;28;20029;-75
2022/03/27 03:55:26;;;;;;;22.17;17.92;;;4.90;99.90;;;;;;5028316;28;20018;-75
2022/03/27 03:57:52;;;;;;;20.88;17.27;;;4.80;99.90;;;;;;5026996;28;20116;-76
2022/03/27 04:00:18;;;;;;;20.90;17.55;;;5.00;99.90;;;;;;5022071;28;20093;-74
2022/03/27 04:02:43;;;;;;;22.98;18.33;;;5.10;99.90;;;;;;5034611;28;20021;-73
2022/03/27 04:05:09;;;;;;;22.00;18.48;;;5.20;99.90;;;;;;5028964;28;20030;-74
2022/03/27 04:07:35;;;;;;;22.52;18.60;;;5.30;99.90;;;;;;5018624;28;20030;-74
2022/03/27 04:10:00;;;;;;;22.00;18.63;;;5.50;99.90;;;;;;5019846;28;20064;-75
2022/03/27 04:12:26;;;;;;;22.75;18.85;;;5.60;99.90;;;;;;5021281;28;20061;-74
2022/03/27 04:14:51;;;;;;;22.05;18.17;;;5.50;99.90;;;;;;5027688;28;20038;-73
2022/03/27 04:17:17;;;;;;;24.63;19.90;;;5.00;99.90;;;;;;5025045;28;20021;-74
2022/03/27 04:19:42;;;;;;;24.08;19.67;;;5.10;99.90;;;;;;5021015;28;20525;-74
2022/03/27 04:22:08;;;;;;;26.00;20.25;;;5.10;99.90;;;;;;5033335;28;20030;-74
2022/03/27 04:24:33;;;;;;;25.23;20.63;;;4.80;99.90;;;;;;5020679;28;20103;-74
2022/03/27 04:26:59;;;;;;;23.05;19.45;;;4.50;99.90;;;;;;5022351;28;20032;-74
2022/03/27 04:29:26;;;;;;;23.58;20.02;;;4.30;99.90;;;;;;5027531;28;20036;-74
2022/03/27 04:31:51;;;;;;;25.98;20.05;;;4.20;99.90;;;;;;5014301;28;20476;-75
2022/03/27 04:34:17;;;;;;;24.10;18.58;;;4.40;99.90;;;;;;5026658;28;20032;-74
2022/03/27 04:36:43;;;;;;;21.90;18.55;;;4.60;99.90;;;;;;5026036;28;20026;-75
2022/03/27 04:39:08;;;;;;;24.00;19.42;;;4.50;99.90;;;;;;5020767;28;20025;-75
2022/03/27 04:41:34;;;;;;;24.58;20.20;;;4.40;99.90;;;;;;5020785;28;20030;-74
2022/03/27 04:43:59;;;;;;;22.70;18.67;;;4.50;99.90;;;;;;5027354;28;20029;-74
2022/03/27 04:46:25;;;;;;;21.13;18.25;;;4.40;99.90;;;;;;5025514;28;20471;-75
2022/03/27 04:48:51;;;;;;;23.13;19.42;;;4.30;99.90;;;;;;5020432;28;20048;-75
2022/03/27 04:51:16;;;;;;;20.73;18.00;;;4.40;99.90;;;;;;5022598;28;20055;-75
2022/03/27 04:53:42;;;;;;;25.33;19.75;;;4.40;99.90;;;;;;5026233;28;20690;-76
2022/03/27 04:56:08;;;;;;;25.02;19.58;;;4.20;99.90;;;;;;5024664;28;20051;-75
2022/03/27 04:58:34;;;;;;;25.33;21.42;;;4.10;99.90;;;;;;5018965;28;20022;-76
2022/03/27 05:01:00;;;;;;;22.85;20.13;;;4.10;99.90;;;;;;5033300;28;20029;-75
2022/03/27 05:03:25;;;;;;;23.30;19.98;;;4.10;99.90;;;;;;5027177;28;20602;-74
2022/03/27 05:05:51;;;;;;;30.15;23.60;;;4.20;99.90;;;;;;5024021;28;20033;-74
2022/03/27 05:08:16;;;;;;;24.15;19.10;;;4.00;99.90;;;;;;5015113;28;20022;-75
2022/03/27 05:10:42;;;;;;;19.70;17.40;;;4.10;99.90;;;;;;5013211;28;20025;-74
2022/03/27 05:13:08;;;;;;;25.45;19.35;;;4.20;99.90;;;;;;5031109;28;20448;-75
2022/03/27 05:15:34;;;;;;;25.85;19.65;;;4.30;99.90;;;;;;5021033;28;20022;-75
2022/03/27 05:18:00;;;;;;;25.98;21.15;;;4.30;99.90;;;;;;5026772;28;20068;-76
2022/03/27 05:20:28;;;;;;;26.02;19.88;;;4.30;99.90;;;;;;5023763;28;20025;-75
2022/03/27 05:22:54;;;;;;;22.33;18.92;;;4.40;99.90;;;;;;5018508;28;20053;-75
2022/03/27 05:25:20;;;;;;;23.42;19.75;;;4.50;99.90;;;;;;5021928;28;20022;-73
2022/03/27 05:27:51;;;;;;;27.17;20.38;;;4.60;99.90;;;;;;5025015;28;20076;-74
2022/03/27 05:30:19;;;;;;;23.17;19.63;;;4.50;99.90;;;;;;5024682;28;20036;-74
2022/03/27 05:32:45;;;;;;;31.38;21.00;;;4.50;99.90;;;;;;5018584;28;20029;-74
2022/03/27 05:35:11;;;;;;;24.88;20.13;;;4.50;99.90;;;;;;5019751;28;20084;-74
2022/03/27 05:37:38;;;;;;;23.27;20.65;;;4.50;99.90;;;;;;5026116;28;20545;-76
2022/03/27 05:40:05;;;;;;;24.83;20.25;;;4.50;99.90;;;;;;5023613;28;20029;-75
2022/03/27 05:42:31;;;;;;;24.23;19.55;;;4.60;99.90;;;;;;5019167;28;20022;-75
2022/03/27 05:44:57;;;;;;;22.35;19.60;;;4.60;99.90;;;;;;5020657;28;20033;-75
2022/03/27 05:47:22;;;;;;;27.25;21.90;;;4.70;99.90;;;;;;5031320;28;20029;-75
2022/03/27 05:49:48;;;;;;;23.48;19.80;;;4.60;99.90;;;;;;5020891;28;20030;-75
2022/03/27 05:52:16;;;;;;;25.30;20.50;;;4.50;99.90;;;;;;5024429;28;20076;-75
2022/03/27 05:54:42;;;;;;;23.40;20.42;;;4.40;99.90;;;;;;5024662;28;20113;-75
2022/03/27 05:57:08;;;;;;;26.20;19.90;;;4.60;99.90;;;;;;5018876;28;20409;-75
2022/03/27 05:59:34;;;;;;;23.52;19.85;;;4.70;99.90;;;;;;5026148;28;20029;-75
2022/03/27 06:01:59;;;;;;;22.58;19.73;;;4.70;99.90;;;;;;5032158;28;20514;-75
2022/03/27 06:04:25;;;;;;;24.67;20.27;;;5.00;99.90;;;;;;5031044;28;20021;-75
2022/03/27 06:06:50;;;;;;;24.98;21.42;;;5.30;99.90;;;;;;5022803;28;20040;-75
2022/03/27 06:09:16;;;;;;;30.70;24.77;;;5.20;99.90;;;;;;5018293;28;20116;-75
2022/03/27 06:11:42;;;;;;;71.25;50.88;;;5.20;99.90;;;;;;5030029;28;20036;-75
2022/03/27 06:14:07;;;;;;;75.75;55.03;;;5.20;99.90;;;;;;5020074;28;20076;-75
2022/03/27 06:16:33;;;;;;;64.63;46.40;;;5.20;99.90;;;;;;5025788;28;20498;-75
2022/03/27 06:18:58;;;;;;;52.08;38.38;;;5.30;99.90;;;;;;5021853;28;20075;-75
2022/03/27 06:21:24;;;;;;;30.90;26.77;;;5.30;99.90;;;;;;5020539;28;20480;-75
2022/03/27 06:23:49;;;;;;;30.38;25.05;;;5.20;99.90;;;;;;5024405;28;20022;-75
2022/03/27 06:26:15;;;;;;;33.13;29.08;;;5.40;99.90;;;;;;5023915;28;20025;-75
2022/03/27 06:28:40;;;;;;;35.92;29.90;;;5.50;99.90;;;;;;5018614;28;20426;-74
2022/03/27 06:31:06;;;;;;;33.67;28.15;;;5.60;99.90;;;;;;5027430;28;20029;-75
2022/03/27 06:33:31;;;;;;;27.88;23.50;;;5.70;99.90;;;;;;5020237;28;20554;-73
2022/03/27 06:35:58;;;;;;;29.70;24.40;;;6.00;99.90;;;;;;5023169;28;20042;-75
2022/03/27 06:38:23;;;;;;;28.08;23.75;;;6.10;99.90;;;;;;5012022;28;20049;-74
2022/03/27 06:40:49;;;;;;;28.20;24.73;;;6.30;99.90;;;;;;5011492;28;20547;-75
2022/03/27 06:43:14;;;;;;;26.85;22.95;;;6.50;99.90;;;;;;5023291;28;20025;-75
2022/03/27 06:45:40;;;;;;;28.88;23.17;;;6.60;99.90;;;;;;5029987;28;20017;-75
2022/03/27 06:48:06;;;;;;;31.25;23.25;;;6.70;99.90;;;;;;5019621;28;20053;-75
2022/03/27 06:50:32;;;;;;;25.55;21.83;;;6.80;99.90;;;;;;5028909;28;20028;-75
2022/03/27 06:52:58;;;;;;;26.05;20.63;;;6.90;99.90;;;;;;5019754;28;20021;-75
2022/03/27 06:55:24;;;;;;;26.35;20.55;;;7.00;99.90;;;;;;5025168;28;20447;-75
2022/03/27 06:57:50;;;;;;;28.00;22.10;;;7.10;99.90;;;;;;5021617;28;20116;-75
2022/03/27 07:03:05;;;;;;;25.15;20.02;;;7.20;99.90;;;;;;5031783;28;20076;-74
2022/03/27 07:05:42;;;;;;;26.48;21.52;;;7.30;99.90;;;;;;5022542;28;20480;-75
2022/03/27 07:08:10;;;;;;;23.80;19.90;;;7.40;99.90;;;;;;5027721;28;20033;-75
2022/03/27 07:10:36;;;;;;;26.13;20.83;;;7.50;99.90;;;;;;5021745;28;20079;-76
2022/03/27 07:13:03;;;;;;;27.92;20.83;;;7.50;99.90;;;;;;5018168;28;20028;-76
2022/03/27 07:15:29;;;;;;;25.88;20.65;;;7.60;99.90;;;;;;5021269;28;20105;-76
2022/03/27 07:17:54;;;;;;;24.27;19.85;;;7.70;99.90;;;;;;5023793;28;20563;-76
2022/03/27 07:20:26;;;;;;;25.10;19.85;;;7.80;99.90;;;;;;5021302;28;20022;-76
2022/03/27 07:22:53;;;;;;;25.63;19.00;;;7.90;99.90;;;;;;5016772;28;20399;-75
2022/03/27 07:25:21;;;;;;;25.05;19.60;;;8.00;99.90;;;;;;5019344;28;20507;-75
2022/03/27 07:27:46;;;;;;;25.02;19.75;;;8.10;99.90;;;;;;5029354;28;20037;-75
2022/03/27 07:30:12;;;;;;;25.00;20.60;;;8.20;99.90;;;;;;5020218;28;20052;-75
2022/03/27 07:32:39;;;;;;;23.67;19.70;;;8.20;99.90;;;;;;5024585;28;20551;-72
2022/03/27 07:35:09;;;;;;;27.00;19.95;;;8.30;99.90;;;;;;5021577;28;20399;-73
2022/03/27 07:37:35;;;;;;;25.00;20.23;;;8.50;99.90;;;;;;5018066;28;20026;-72
2022/03/27 07:40:03;;;;;;;26.25;19.75;;;8.60;99.90;;;;;;5019101;28;20496;-75
2022/03/27 07:42:32;;;;;;;28.45;21.27;;;8.80;99.90;;;;;;5030272;28;20394;-75
2022/03/27 07:44:58;;;;;;;25.33;19.98;;;9.00;99.90;;;;;;5018632;28;20022;-75
2022/03/27 07:47:23;;;;;;;26.70;19.90;;;9.10;99.90;;;;;;5024903;28;20521;-76
2022/03/27 07:49:49;;;;;;;26.33;20.40;;;9.20;99.90;;;;;;5023950;28;20716;-73
2022/03/27 07:52:14;;;;;;;29.13;20.67;;;9.30;99.90;;;;;;5020470;28;20088;-76
2022/03/27 07:54:41;;;;;;;24.58;19.58;;;9.40;99.90;;;;;;5018401;28;20117;-75
2022/03/27 07:57:07;;;;;;;25.05;20.25;;;9.50;99.90;;;;;;5026826;28;20408;-75
2022/03/27 07:59:33;;;;;;;27.58;19.83;;;9.60;99.90;;;;;;5027925;28;20025;-76
2022/03/27 08:01:59;;;;;;;23.52;19.85;;;9.60;99.90;;;;;;5034360;28;20438;-76
2022/03/27 08:04:24;;;;;;;27.70;20.55;;;9.70;99.90;;;;;;5021731;28;20036;-76
2022/03/27 08:06:51;;;;;;;27.50;21.75;;;9.80;99.90;;;;;;5026586;28;20488;-75
2022/03/27 08:09:16;;;;;;;24.48;20.00;;;9.90;99.90;;;;;;5026582;28;20022;-75
2022/03/27 08:11:42;;;;;;;24.40;20.00;;;10.00;99.90;;;;;;5021204;28;20029;-75
2022/03/27 08:14:09;;;;;;;27.42;20.48;;;10.20;99.90;;;;;;5021265;28;20113;-76
2022/03/27 08:16:36;;;;;;;27.88;20.70;;;10.30;99.90;;;;;;5032984;28;20061;-75
2022/03/27 08:19:02;;;;;;;24.67;19.67;;;10.50;99.90;;;;;;5019769;28;20396;-76
2022/03/27 08:21:28;;;;;;;27.23;20.95;;;10.60;99.90;;;;;;5026295;28;20026;-75
2022/03/27 08:23:54;;;;;;;28.75;21.67;;;10.80;99.90;;;;;;5013815;28;20022;-75
2022/03/27 08:29:04;;;;;;;25.45;20.60;;;11.00;99.90;;;;;;5014075;28;20036;-75
2022/03/27 08:31:31;;;;;;;26.83;20.63;;;11.00;99.90;;;;;;5014005;28;20025;-75
2022/03/27 08:33:57;;;;;;;25.45;20.80;;;11.20;99.90;;;;;;5027563;28;20025;-75
2022/03/27 08:36:23;;;;;;;30.17;20.88;;;11.40;99.90;;;;;;5023812;28;20061;-76
2022/03/27 08:38:49;;;;;;;30.75;20.25;;;11.50;99.90;;;;;;5021248;28;20029;-76
2022/03/27 08:41:16;;;;;;;24.77;20.42;;;11.50;99.90;;;;;;5024845;28;20037;-76
2022/03/27 08:43:43;;;;;;;32.90;21.75;;;11.70;99.90;;;;;;5032667;28;20353;-77
2022/03/27 08:46:09;;;;;;;27.40;20.98;;;11.80;99.90;;;;;;5028386;28;20423;-77
2022/03/27 08:48:37;;;;;;;28.20;21.90;;;11.90;99.90;;;;;;5029324;28;20108;-76
2022/03/27 08:51:05;;;;;;;30.00;22.60;;;11.90;99.90;;;;;;5026062;28;20037;-77
2022/03/27 08:53:42;;;;;;;29.85;22.00;;;11.90;99.90;;;;;;5026579;28;20100;-76
2022/03/27 08:56:09;;;;;;;29.15;21.63;;;12.00;99.90;;;;;;5025791;28;20051;-76
2022/03/27 08:58:37;;;;;;;30.75;21.90;;;12.20;99.90;;;;;;5015822;28;20022;-77
2022/03/27 09:01:04;;;;;;;28.98;20.48;;;12.40;99.90;;;;;;5027026;28;20131;-76
2022/03/27 09:03:33;;;;;;;25.90;20.00;;;12.60;99.90;;;;;;5029147;28;20081;-76
2022/03/27 09:06:00;;;;;;;27.48;20.63;;;12.80;99.90;;;;;;5026966;28;20360;-76
2022/03/27 09:08:25;;;;;;;28.48;19.88;;;13.10;99.90;;;;;;5015487;28;20045;-76
2022/03/27 09:10:51;;;;;;;22.77;16.95;;;13.10;99.90;;;;;;5027487;28;20053;-75
2022/03/27 09:13:18;;;;;;;23.52;17.67;;;13.10;99.90;;;;;;5020091;28;20030;-75
2022/03/27 09:15:45;;;;;;;25.20;18.15;;;13.20;99.90;;;;;;5019396;28;20040;-75
2022/03/27 09:18:13;;;;;;;25.30;18.15;;;13.40;99.90;;;;;;5025288;28;20501;-75
2022/03/27 09:20:47;;;;;;;25.35;17.85;;;13.40;99.90;;;;;;5024580;28;20105;-75
2022/03/27 09:23:13;;;;;;;23.88;17.23;;;13.40;99.90;;;;;;5020849;28;20029;-76
2022/03/27 09:25:54;;;;;;;25.25;16.85;;;13.40;99.90;;;;;;5018409;28;20029;-76
2022/03/27 09:28:25;;;;;;;21.50;16.00;;;13.60;99.90;;;;;;5022277;28;20116;-76
2022/03/27 09:30:51;;;;;;;17.63;12.55;;;13.50;99.90;;;;;;5026422;28;20037;-75
2022/03/27 09:33:33;;;;;;;17.00;12.63;;;13.70;99.90;;;;;;5021817;28;20036;-76
2022/03/27 09:36:10;;;;;;;18.08;11.65;;;14.10;99.90;;;;;;5019434;28;20100;-76
2022/03/27 09:38:38;;;;;;;11.98;8.93;;;14.10;99.90;;;;;;5032796;28;20021;-75
2022/03/27 09:41:04;;;;;;;16.90;12.95;;;14.10;99.90;;;;;;5025374;28;20515;-75
2022/03/27 09:43:30;;;;;;;17.98;12.48;;;14.20;99.90;;;;;;5025172;28;20021;-75
2022/03/27 09:45:59;;;;;;;21.50;15.35;;;14.50;99.90;;;;;;5020498;28;20068;-76
2022/03/27 09:48:25;;;;;;;20.17;13.95;;;14.30;99.90;;;;;;5019445;28;20028;-76
2022/03/27 09:50:53;;;;;;;18.95;14.35;;;14.30;99.90;;;;;;5024419;28;20036;-75
2022/03/27 09:53:30;;;;;;;21.45;15.73;;;14.40;99.90;;;;;;5014459;28;20022;-75
2022/03/27 09:55:58;;;;;;;20.55;14.55;;;14.30;99.90;;;;;;5022211;28;20034;-76
2022/03/27 09:58:37;;;;;;;20.23;14.60;;;14.30;99.90;;;;;;5028164;28;20022;-75
2022/03/27 10:01:11;;;;;;;20.27;13.73;;;14.40;99.90;;;;;;5032038;28;20475;-75
2022/03/27 10:03:57;;;;;;;21.05;14.10;;;14.50;99.90;;;;;;5026195;28;20448;-75
2022/03/27 10:06:27;;;;;;;18.90;13.85;;;14.50;99.90;;;;;;5025889;28;20382;-76
2022/03/27 10:08:52;;;;;;;20.08;13.98;;;14.60;99.90;;;;;;5021880;28;20034;-76
2022/03/27 10:11:21;;;;;;;17.77;12.55;;;14.60;99.90;;;;;;5017312;28;20042;-76
2022/03/27 10:13:48;;;;;;;17.08;12.00;;;14.80;99.90;;;;;;5021951;28;20033;-76
2022/03/27 10:16:14;;;;;;;14.55;11.23;;;14.80;99.90;;;;;;5011024;28;20092;-76
2022/03/27 10:18:41;;;;;;;16.52;11.73;;;14.80;99.90;;;;;;5022121;28;20025;-76
2022/03/27 10:21:07;;;;;;;16.67;11.90;;;14.60;99.90;;;;;;5017222;28;20021;-76
2022/03/27 10:23:33;;;;;;;17.67;12.95;;;14.30;99.90;;;;;;5021639;28;20548;-76
2022/03/27 10:26:03;;;;;;;16.30;12.23;;;14.20;99.90;;;;;;5024609;28;20120;-76
2022/03/27 10:28:29;;;;;;;13.65;10.65;;;14.20;99.90;;;;;;5012524;28;20463;-76
2022/03/27 10:30:55;;;;;;;16.38;11.07;;;14.20;99.90;;;;;;5029959;28;20025;-76
2022/03/27 10:33:24;;;;;;;14.73;10.70;;;14.20;99.90;;;;;;5021197;28;20555;-76
2022/03/27 10:36:13;;;;;;;13.55;9.88;;;14.30;99.90;;;;;;5024505;28;20038;-76
2022/03/27 10:38:45;;;;;;;13.68;9.63;;;14.30;99.90;;;;;;5025486;28;20589;-76
2022/03/27 10:41:24;;;;;;;14.15;9.15;;;14.50;99.90;;;;;;5011656;28;20108;-76
2022/03/27 10:44:17;;;;;;;11.07;8.18;;;15.00;99.90;;;;;;5031785;28;20487;-77
2022/03/27 10:46:46;;;;;;;12.02;8.60;;;15.20;99.90;;;;;;5037962;28;20569;-77
2022/03/27 10:49:17;;;;;;;12.77;8.50;;;15.50;99.90;;;;;;5038405;28;20025;-77
2022/03/27 10:51:45;;;;;;;12.73;9.55;;;15.60;99.90;;;;;;5030847;28;20116;-75
2022/03/27 10:54:10;;;;;;;13.13;9.90;;;15.70;99.90;;;;;;5031564;28;20021;-76
2022/03/27 10:56:39;;;;;;;12.02;9.52;;;15.70;99.90;;;;;;5016369;28;20033;-75
2022/03/27 10:59:09;;;;;;;15.80;9.75;;;15.90;99.90;;;;;;5021744;28;20028;-77
2022/03/27 11:01:44;;;;;;;15.23;10.35;;;16.20;99.90;;;;;;5031741;28;20076;-75
2022/03/27 11:04:20;;;;;;;12.52;9.38;;;16.30;99.90;;;;;;5020724;28;20022;-71
2022/03/27 11:06:48;;;;;;;14.65;9.68;;;16.20;99.90;;;;;;5014865;28;20036;-75
2022/03/27 11:09:35;;;;;;;11.13;8.82;;;16.10;99.90;;;;;;5024473;28;20025;-75
2022/03/27 11:12:05;;;;;;;14.23;9.50;;;15.90;99.90;;;;;;5019166;28;20109;-75
2022/03/27 11:14:52;;;;;;;15.13;9.77;;;15.90;99.90;;;;;;5015684;28;20091;-74
2022/03/27 11:17:33;;;;;;;13.23;9.40;;;16.40;99.90;;;;;;5021118;28;20511;-75
2022/03/27 11:19:59;;;;;;;12.73;8.75;;;16.90;99.90;;;;;;5018011;28;20033;-75
2022/03/27 11:23:08;;;;;;;9.90;7.60;;;17.40;99.90;;;;;;5028591;28;20068;-75
2022/03/27 11:25:37;;;;;;;12.43;8.80;;;17.60;99.90;;;;;;5030945;28;20116;-75
2022/03/27 11:28:03;;;;;;;13.38;8.68;;;17.60;99.90;;;;;;5031309;28;20139;-75
2022/03/27 11:30:30;;;;;;;11.32;8.63;;;17.60;99.90;;;;;;5030512;28;20124;-76
2022/03/27 11:33:11;;;;;;;10.88;7.22;;;17.20;99.90;;;;;;5033752;28;20075;-76
2022/03/27 11:35:37;;;;;;;10.43;7.65;;;17.00;99.90;;;;;;5033625;28;20030;-75
2022/03/27 11:38:20;;;;;;;11.93;7.47;;;17.10;99.90;;;;;;5025195;28;20104;-75
2022/03/27 11:40:46;;;;;;;14.10;8.48;;;17.00;99.90;;;;;;5013375;28;20030;-75
2022/03/27 11:43:29;;;;;;;12.15;8.30;;;17.10;99.90;;;;;;5013778;28;20112;-75
2022/03/27 11:45:57;;;;;;;12.50;8.20;;;17.50;99.90;;;;;;5022378;28;20561;-75
2022/03/27 11:48:23;;;;;;;13.68;8.85;;;17.70;99.90;;;;;;5033286;28;20052;-75
2022/03/27 11:50:50;;;;;;;10.98;7.70;;;17.70;99.90;;;;;;5033182;28;20021;-75
2022/03/27 11:53:16;;;;;;;10.98;8.05;;;17.40;99.90;;;;;;5020664;28;20396;-75
2022/03/27 11:55:42;;;;;;;11.35;8.20;;;17.50;99.90;;;;;;5013578;28;20048;-75
2022/03/27 11:58:10;;;;;;;12.73;8.90;;;17.60;99.90;;;;;;5014653;28;20122;-75
2022/03/27 12:00:38;;;;;;;13.80;8.57;;;17.70;99.90;;;;;;5023185;28;20028;-76
2022/03/27 12:03:25;;;;;;;12.65;8.35;;;17.80;99.90;;;;;;5019320;28;20026;-75
2022/03/27 12:05:51;;;;;;;11.90;7.75;;;18.90;99.90;;;;;;5012968;28;20057;-76
2022/03/27 12:08:19;;;;;;;12.50;8.80;;;19.30;99.90;;;;;;5016758;28;20029;-76
2022/03/27 12:10:54;;;;;;;14.50;9.75;;;18.50;99.90;;;;;;5025962;28;20468;-76
2022/03/27 12:13:20;;;;;;;12.75;9.25;;;18.40;99.90;;;;;;5027846;28;20030;-76
2022/03/27 12:15:53;;;;;;;12.40;8.80;;;18.30;99.90;;;;;;5014447;28;20515;-76
2022/03/27 12:18:32;;;;;;;12.52;9.13;;;18.00;99.90;;;;;;5021474;28;20030;-75
2022/03/27 12:21:01;;;;;;;11.45;8.27;;;18.10;99.90;;;;;;5018426;28;20484;-75
2022/03/27 12:23:29;;;;;;;12.65;8.85;;;18.30;99.90;;;;;;5015090;28;20315;-76
2022/03/27 12:25:59;;;;;;;13.05;8.15;;;18.50;99.90;;;;;;5012923;28;20026;-77
2022/03/27 12:31:23;;;;;;;13.18;8.23;;;19.30;99.90;;;;;;5014158;28;20048;-76
2022/03/27 12:33:50;;;;;;;10.40;7.75;;;19.90;99.90;;;;;;5014090;28;20376;-76
2022/03/27 12:36:16;;;;;;;11.02;7.43;;;19.50;99.90;;;;;;5020985;28;20120;-76
2022/03/27 12:38:42;;;;;;;11.32;7.75;;;19.90;99.90;;;;;;5033661;28;20096;-76
2022/03/27 12:41:10;;;;;;;10.23;6.55;;;19.20;99.90;;;;;;5032043;28;20120;-76
2022/03/27 12:43:37;;;;;;;9.63;7.50;;;18.80;99.90;;;;;;5033262;28;20045;-76
2022/03/27 12:46:23;;;;;;;10.52;6.55;;;19.10;99.90;;;;;;5034096;28;20076;-76
2022/03/27 12:48:59;;;;;;;8.73;6.27;;;18.60;99.90;;;;;;5033390;28;20017;-76